createdAt,value
2022-10-05T05:54:02.339Z,100968.72
2022-10-05T05:57:35.863Z,100975.19
2022-10-05T06:01:48.230Z,100975.69
2022-10-05T06:13:57.553Z,100998.50
2022-10-05T06:25:39.208Z,101004.13
2022-10-05T06:28:21.210Z,101017.56
2022-10-05T06:31:48.943Z,101020.53
2022-10-05T06:35:06.704Z,101019.34
2022-10-05T06:38:59.918Z,101018.06
2022-10-05T06:42:16.629Z,101021.88
2022-10-05T06:46:16.978Z,101027.09
2022-10-05T06:49:46.865Z,101033.06
2022-10-05T06:53:54.547Z,101026.47
2022-10-05T06:57:07.021Z,101034.19
2022-10-05T07:00:17.489Z,101033.06
2022-10-05T07:03:58.455Z,101030.47
2022-10-05T07:06:49.732Z,101024.44
2022-10-05T07:09:43.478Z,101031.84
2022-10-05T07:13:13.575Z,101033.13
2022-10-05T07:16:21.978Z,101036.03
2022-10-05T07:19:37.443Z,101030.53
2022-10-05T07:22:57.362Z,101033.00
2022-10-05T07:25:44.916Z,101036.84
2022-10-05T07:29:13.334Z,101040.81
2022-10-05T07:32:03.351Z,101044.84
2022-10-05T07:35:41.197Z,101052.75
2022-10-05T07:38:48.714Z,101054.47
2022-10-05T07:41:52.587Z,101057.66
2022-10-05T07:44:51.518Z,101051.84
2022-10-05T07:47:50.092Z,101059.91
2022-10-05T07:51:08.213Z,101064.19
2022-10-05T07:53:51.046Z,101062.28
2022-10-05T07:56:45.212Z,101069.25
2022-10-05T07:59:48.332Z,101056.16
2022-10-05T08:03:12.673Z,101068.47
2022-10-05T08:06:14.829Z,101065.47
2022-10-05T08:08:57.767Z,101065.97
2022-10-05T08:11:40.706Z,101071.16
2022-10-05T08:14:33.855Z,101066.59
2022-10-05T08:17:15.730Z,101073.88
2022-10-05T08:20:29.162Z,101073.75
2022-10-05T08:23:29.672Z,101076.75
2022-10-05T08:26:14.376Z,101076.75
2022-10-05T08:29:28.686Z,101075.13
2022-10-05T08:32:13.521Z,101086.56
2022-10-05T08:35:04.293Z,101088.03
2022-10-05T08:37:46.053Z,101091.97
2022-10-05T08:40:46.364Z,101099.72
2022-10-05T08:44:02.367Z,101099.09
2022-10-05T08:47:20.229Z,101094.81
2022-10-05T08:50:08.743Z,101102.59
2022-10-05T08:53:22.190Z,101109.84
2022-10-05T08:56:43.070Z,101113.75
2022-10-05T08:59:50.920Z,101112.22
2022-10-05T09:02:54.388Z,101119.31
2022-10-05T09:06:38.244Z,101120.13
2022-10-05T09:09:50.819Z,101119.81
2022-10-05T09:13:06.883Z,101113.47
2022-10-05T09:15:56.689Z,101104.94
2022-10-05T09:18:47.265Z,101103.28
2022-10-05T09:21:46.231Z,101103.13
2022-10-05T09:25:00.109Z,101094.59
2022-10-05T09:28:04.067Z,101101.97
2022-10-05T09:31:17.457Z,101094.28
2022-10-05T09:34:41.620Z,101105.09
2022-10-05T09:37:38.165Z,101110.13
2022-10-05T09:41:04.571Z,101109.59
2022-10-05T09:45:06.291Z,101107.03
2022-10-05T09:48:32.384Z,101107.84
2022-10-05T09:51:27.178Z,101108.94
2022-10-05T09:54:53.081Z,101111.78
2022-10-05T09:58:12.580Z,101120.25
2022-10-05T10:01:34.717Z,101110.03
2022-10-05T10:04:50.757Z,101101.19
2022-10-05T10:08:09.413Z,101106.69
2022-10-05T10:10:51.446Z,101101.47
2022-10-05T10:13:54.922Z,101095.69
2022-10-05T10:17:29.603Z,101096.81
2022-10-05T10:20:28.620Z,101103.56
2022-10-05T10:23:50.960Z,101093.25
2022-10-05T10:26:38.473Z,101085.03
2022-10-05T10:29:31.478Z,101085.03
2022-10-05T10:32:24.782Z,101093.28
2022-10-05T10:35:44.062Z,101091.88
2022-10-05T10:38:39.444Z,101091.50
2022-10-05T10:41:56.799Z,101099.38
2022-10-05T10:44:59.767Z,101090.97
2022-10-05T10:48:06.516Z,101077.69
2022-10-05T10:51:09.005Z,101082.84
2022-10-05T10:54:14.390Z,101076.72
2022-10-05T10:56:57.556Z,101081.88
2022-10-05T11:00:19.851Z,101083.59
2022-10-05T11:03:43.040Z,101068.63
2022-10-05T11:07:28.109Z,101074.72
2022-10-05T11:10:51.459Z,101075.97
2022-10-05T11:14:50.302Z,101068.69
2022-10-05T11:18:00.044Z,101065.41
2022-10-05T11:24:59.221Z,101060.97
2022-10-05T11:31:45.317Z,101068.47
2022-10-05T11:34:48.362Z,101059.13
2022-10-05T11:38:04.008Z,101050.78
2022-10-05T11:41:10.942Z,101053.59
2022-10-05T11:44:33.674Z,101048.50
2022-10-05T11:47:33.560Z,101048.25
2022-10-05T11:50:59.618Z,101040.91
2022-10-05T11:54:15.353Z,101047.22
2022-10-05T11:57:28.656Z,101049.88
2022-10-05T12:00:25.697Z,101045.56
2022-10-05T12:03:18.170Z,101043.75
2022-10-05T12:10:29.606Z,101034.38
2022-10-05T12:13:54.961Z,101029.56
2022-10-05T12:17:16.647Z,101028.59
2022-10-05T12:20:01.372Z,101024.06
2022-10-05T12:23:19.934Z,101005.63
2022-10-05T12:26:44.920Z,101009.56
2022-10-05T12:29:57.967Z,101002.13
2022-10-05T12:33:25.079Z,101005.06
2022-10-05T12:36:59.223Z,101004.72
2022-10-05T12:40:03.307Z,101004.34
2022-10-05T12:43:21.020Z,100996.38
2022-10-05T12:46:35.655Z,101000.66
2022-10-05T12:50:08.704Z,100993.66
2022-10-05T12:53:20.091Z,100990.97
2022-10-05T12:56:31.393Z,100991.34
2022-10-05T12:59:45.606Z,100997.66
2022-10-05T13:02:51.211Z,100998.47
2022-10-05T13:06:04.590Z,100992.28
2022-10-05T13:08:59.413Z,100991.59
2022-10-05T13:11:50.791Z,100984.53
2022-10-05T13:15:31.169Z,100983.69
2022-10-05T13:18:43.849Z,100977.25
2022-10-05T13:22:32.070Z,100987.28
2022-10-05T13:25:33.960Z,100982.28
2022-10-05T13:28:58.563Z,100979.16
2022-10-05T13:31:49.111Z,100978.84
2022-10-05T13:35:22.338Z,100974.28
2022-10-05T13:38:27.504Z,100980.88
2022-10-05T13:42:18.499Z,100967.59
2022-10-05T13:49:42.167Z,100969.47
2022-10-05T13:52:45.514Z,100963.13
2022-10-05T13:56:26.988Z,100968.47
2022-10-05T13:59:38.140Z,100963.56
2022-10-05T14:02:23.253Z,100950.00
2022-10-05T14:05:25.918Z,100955.72
2022-10-05T14:08:39.505Z,100944.88
2022-10-05T14:12:13.568Z,100945.06
2022-10-05T14:15:42.420Z,100956.69
2022-10-05T14:18:34.731Z,100950.50
2022-10-05T14:21:26.039Z,100938.13
2022-10-05T14:28:33.028Z,100952.56
2022-10-05T14:32:02.110Z,100950.06
2022-10-05T14:35:25.487Z,100953.31
2022-10-05T14:39:23.780Z,100952.06
2022-10-05T14:42:31.884Z,100948.53
2022-10-05T14:45:37.476Z,100955.72
2022-10-05T14:48:17.832Z,100944.59
2022-10-05T14:51:57.915Z,100939.09
2022-10-05T14:55:16.218Z,100937.38
2022-10-05T15:03:10.304Z,100947.16
2022-10-05T15:06:27.249Z,100948.66
2022-10-05T15:10:17.474Z,100939.50
2022-10-05T15:13:48.778Z,100940.06
2022-10-05T15:16:40.701Z,100942.34
2022-10-05T15:31:34.603Z,100936.63
2022-10-05T15:34:57.281Z,100932.44
2022-10-05T15:38:41.352Z,100927.84
2022-10-05T15:42:06.702Z,100930.56
2022-10-05T15:46:19.179Z,100941.72
2022-10-05T15:56:44.658Z,100938.38
2022-10-05T16:00:10.876Z,100918.41
2022-10-05T16:04:10.799Z,100921.13
2022-10-05T16:11:10.560Z,100927.81
2022-10-05T16:14:29.100Z,100931.53
2022-10-05T16:17:41.330Z,100936.09
2022-10-05T19:31:30.426Z,100983.81
2022-10-05T19:34:43.091Z,100982.84
2022-10-05T19:37:19.517Z,100958.44
2022-10-05T19:40:07.254Z,100987.97
2022-10-05T19:42:45.345Z,100992.78
2022-10-05T19:49:57.075Z,100979.81
2022-10-05T19:52:28.695Z,101000.28
2022-10-05T19:55:17.186Z,100990.88
2022-10-05T19:58:21.203Z,101006.06
2022-10-05T20:01:06.364Z,101003.22
2022-10-05T20:03:38.195Z,101013.56
2022-10-05T20:06:10.995Z,101011.59
2022-10-05T20:08:45.034Z,101015.69
2022-10-05T20:11:19.697Z,101014.38
2022-10-05T20:14:01.186Z,101018.53
2022-10-05T20:16:53.263Z,101016.97
2022-10-05T20:19:52.139Z,101011.47
2022-10-05T20:22:28.515Z,101011.34
2022-10-05T20:24:58.934Z,101000.84
2022-10-05T20:27:42.547Z,101004.88
2022-10-05T20:30:33.926Z,101009.97
2022-10-05T20:33:01.769Z,101008.22
2022-10-05T20:35:30.881Z,101004.19
2022-10-05T20:38:00.187Z,101000.09
2022-10-05T20:40:29.902Z,100997.25
2022-10-05T20:42:59.136Z,100989.13
2022-10-05T20:45:27.350Z,100988.94
2022-10-05T20:47:55.171Z,100989.81
2022-10-05T20:50:23.642Z,100990.38
2022-10-05T20:52:51.392Z,100987.88
2022-10-05T20:55:20.881Z,100988.25
2022-10-05T20:57:50.975Z,100992.75
2022-10-05T21:00:20.374Z,100983.78
2022-10-05T21:02:50.635Z,100974.31
2022-10-05T21:05:18.474Z,100976.19
2022-10-05T21:12:19.770Z,100962.34
2022-10-05T21:14:47.566Z,100960.53
2022-10-05T21:17:15.496Z,100961.41
2022-10-05T21:19:43.297Z,100960.78
2022-10-05T21:22:10.942Z,100959.88
2022-10-05T21:24:41.077Z,100962.09
2022-10-05T21:27:11.540Z,100966.88
2022-10-05T21:29:41.561Z,100963.81
2022-10-05T21:32:11.888Z,100964.09
2022-10-05T21:34:41.654Z,100964.28
2022-10-05T21:37:14.195Z,100956.75
2022-10-05T21:39:42.400Z,100945.22
2022-10-05T21:42:09.768Z,100960.53
2022-10-05T21:44:37.341Z,100949.53
2022-10-05T21:47:07.052Z,100944.09
2022-10-05T21:49:36.268Z,100958.25
2022-10-05T21:52:05.897Z,100954.59
2022-10-05T21:54:35.177Z,100952.09
2022-10-05T21:57:05.604Z,100954.34
2022-10-05T21:59:34.870Z,100945.97
2022-10-05T22:02:05.229Z,100947.31
2022-10-05T22:04:32.583Z,100953.91
2022-10-05T22:07:01.321Z,100931.25
2022-10-05T22:09:28.691Z,100935.16
2022-10-05T22:11:57.609Z,100931.13
2022-10-05T22:14:25.487Z,100943.47
2022-10-05T22:16:53.512Z,100919.97
2022-10-05T22:19:22.332Z,100923.75
2022-10-05T22:21:51.367Z,100920.75
2022-10-05T22:24:20.477Z,100934.25
2022-10-05T22:26:51.709Z,100929.00
2022-10-05T22:29:20.518Z,100919.56
2022-10-05T22:31:49.282Z,100924.06
2022-10-05T22:34:18.475Z,100927.47
2022-10-05T22:36:48.542Z,100925.47
2022-10-05T22:39:17.220Z,100924.81
2022-10-05T22:41:46.594Z,100927.47
2022-10-05T22:44:14.631Z,100925.75
2022-10-05T22:46:43.507Z,100927.78
2022-10-05T22:49:11.829Z,100916.06
2022-10-05T22:51:39.577Z,100914.44
2022-10-05T22:54:07.078Z,100917.34
2022-10-05T22:56:34.732Z,100914.56
2022-10-05T22:59:03.542Z,100907.00
2022-10-05T23:01:31.007Z,100911.84
2022-10-05T23:04:00.331Z,100898.06
2022-10-05T23:06:28.816Z,100900.81
2022-10-05T23:08:57.439Z,100899.19
2022-10-05T23:11:28.928Z,100892.84
2022-10-05T23:13:58.126Z,100905.06
2022-10-05T23:16:27.913Z,100907.00
2022-10-05T23:18:56.991Z,100908.19
2022-10-05T23:21:27.730Z,100899.28
2022-10-05T23:23:55.215Z,100903.81
2022-10-05T23:26:26.633Z,100898.31
2022-10-05T23:28:54.806Z,100883.13
2022-10-05T23:31:27.555Z,100892.59
2022-10-05T23:33:56.628Z,100886.53
2022-10-05T23:36:27.865Z,100896.31
2022-10-05T23:38:55.469Z,100885.00
2022-10-05T23:41:23.751Z,100878.97
2022-10-05T23:43:52.216Z,100882.69
2022-10-05T23:46:19.962Z,100874.94
2022-10-05T23:48:50.461Z,100885.06
2022-10-05T23:51:19.404Z,100881.16
2022-10-05T23:53:46.985Z,100886.56
2022-10-05T23:56:14.424Z,100874.59
2022-10-05T23:58:45.830Z,100870.88
